Reecon Whale — 9HA2885 — position and weather

sailwx.info

Track history (hours):
 
Tides and Currents Weather Stations Pressure Air Temp Water Temp Dewpoint Dewpoint Depression Visibility Wind Speed Wind Dir Waves Ship Positions

Reecon Whale

Last reported at 2017-Mar-27 02:33 UTC. Time now 2017-Mar-27 02:50 UTC.
Position N 45°38' E 013°46'.

Length 145 m; draft 9.2 m.

Type: Ship. MMSI: 256579000.

Date/timePositionNaut miles runAvg speedWind from/ knotsBaromVisibWave heightAir tempDewpointWater temp
2017-Mar-27 02:33N 45°38' E 013°46'0 0.0
2017-Mar-27 01:26N 45°38' E 013°46'0 0.0
2017-Mar-27 00:33N 45°38' E 013°46'0 0.0
2017-Mar-26 23:33N 45°38' E 013°46'0 0.0
2017-Mar-26 22:30N 45°38' E 013°46'0 0.0
2017-Mar-26 21:33N 45°38' E 013°46'0 0.0
2017-Mar-26 20:32N 45°38' E 013°46'0 0.0
2017-Mar-26 19:33N 45°38' E 013°46'0 0.0
2017-Mar-26 18:33N 45°38' E 013°46'0 0.0
2017-Mar-26 17:33N 45°38' E 013°46'0 0.0
2017-Mar-26 16:33N 45°38' E 013°46'0 0.0
2017-Mar-26 15:32N 45°38' E 013°46'2 1.7
2017-Mar-26 14:33N 45°38' E 013°44'8 7.6
2017-Mar-26 13:33N 45°36' E 013°34'9 9.5
2017-Mar-26 12:33N 45°30' E 013°23'1414.1
2017-Mar-26 11:33N 45°17' E 013°13'1514.9
2017-Mar-26 10:33N 45°03' E 013°20'1514.9
2017-Mar-26 09:33N 44°50' E 013°29'1515.1
2017-Mar-26 08:33N 44°37' E 013°41'1515.2
2017-Mar-26 07:34N 44°24' E 013°52'1515.3
2017-Mar-26 06:33N 44°11' E 014°04'1515.4
2017-Mar-26 05:33N 43°59' E 014°17'29514.1
2017-Mar-25 08:33N 40°15' E 018°36'14415.8
2017-Mar-24 23:27N 38°13' E 020°14'1516.0
2017-Mar-24 22:30N 37°60' E 020°24'15910.7
2017-Mar-24 07:34N 37°22' E 023°39'1414.1
2017-Mar-24 06:33N 37°36' E 023°42'1413.6
2017-Mar-24 05:33N 37°49' E 023°37'5 4.6
2017-Mar-24 04:33N 37°52' E 023°33'0 0.0
2017-Mar-24 03:33N 37°52' E 023°33'0 0.0
2017-Mar-24 02:33N 37°52' E 023°33'0 0.0
2017-Mar-24 01:33N 37°52' E 023°33'0 0.0
2017-Mar-24 00:33N 37°52' E 023°33'0 0.0
2017-Mar-23 23:33N 37°52' E 023°33'0 0.0
2017-Mar-23 22:33N 37°52' E 023°33'0 0.0
2017-Mar-23 21:33N 37°52' E 023°33'0 0.1
2017-Mar-23 20:34N 37°52' E 023°33'0 0.1
2017-Mar-23 19:33N 37°52' E 023°33'0 0.0
2017-Mar-23 18:33N 37°52' E 023°33'0 0.0
2017-Mar-23 17:33N 37°52' E 023°33'0 0.0
2017-Mar-23 16:33N 37°52' E 023°33'0 0.0
2017-Mar-23 15:33N 37°52' E 023°33'0 0.0
2017-Mar-23 14:33N 37°52' E 023°33'0 0.5
2017-Mar-23 13:33N 37°52' E 023°33'1110.6
2017-Mar-23 12:33N 37°45' E 023°43'1212.2
2017-Mar-23 11:33N 37°38' E 023°55'1612.1
2017-Mar-23 10:14N 37°44' E 024°14'14113.1
2017-Mar-22 23:31N 39°46' E 025°44'1313.1
2017-Mar-22 22:32N 39°56' E 025°54'  
2017-Mar-18 06:33N 37°47' E 025°25'1414.1
2017-Mar-18 05:33N 37°34' E 025°18'1414.2
2017-Mar-18 04:33N 37°24' E 025°05'1414.4
2017-Mar-18 03:33N 37°15' E 024°51'  
Track history (hours):
 
Tides and Currents Weather Stations Pressure Air Temp Water Temp Dewpoint Dewpoint Depression Visibility Wind Speed Wind Dir Waves Ship Positions

Reecon Whale

Last reported at 2017-Mar-27 02:33 UTC. Time now 2017-Mar-27 02:50 UTC.
Position N 45°38' E 013°46'.

Length 145 m; draft 9.2 m.

Type: Ship. MMSI: 256579000.

Date/timePositionNaut miles runAvg speedWind from/ knotsBaromVisibWave heightAir tempDewpointWater temp
2017-Mar-27 02:33N 45°38' E 013°46'0 0.0
2017-Mar-27 01:26N 45°38' E 013°46'0 0.0
2017-Mar-27 00:33N 45°38' E 013°46'0 0.0
2017-Mar-26 23:33N 45°38' E 013°46'0 0.0
2017-Mar-26 22:30N 45°38' E 013°46'0 0.0
2017-Mar-26 21:33N 45°38' E 013°46'0 0.0
2017-Mar-26 20:32N 45°38' E 013°46'0 0.0
2017-Mar-26 19:33N 45°38' E 013°46'0 0.0
2017-Mar-26 18:33N 45°38' E 013°46'0 0.0
2017-Mar-26 17:33N 45°38' E 013°46'0 0.0
2017-Mar-26 16:33N 45°38' E 013°46'0 0.0
2017-Mar-26 15:32N 45°38' E 013°46'2 1.7
2017-Mar-26 14:33N 45°38' E 013°44'8 7.6
2017-Mar-26 13:33N 45°36' E 013°34'9 9.5
2017-Mar-26 12:33N 45°30' E 013°23'1414.1
2017-Mar-26 11:33N 45°17' E 013°13'1514.9
2017-Mar-26 10:33N 45°03' E 013°20'1514.9
2017-Mar-26 09:33N 44°50' E 013°29'1515.1
2017-Mar-26 08:33N 44°37' E 013°41'1515.2
2017-Mar-26 07:34N 44°24' E 013°52'1515.3
2017-Mar-26 06:33N 44°11' E 014°04'1515.4
2017-Mar-26 05:33N 43°59' E 014°17'29514.1
2017-Mar-25 08:33N 40°15' E 018°36'14415.8
2017-Mar-24 23:27N 38°13' E 020°14'1516.0
2017-Mar-24 22:30N 37°60' E 020°24'15910.7
2017-Mar-24 07:34N 37°22' E 023°39'1414.1
2017-Mar-24 06:33N 37°36' E 023°42'1413.6
2017-Mar-24 05:33N 37°49' E 023°37'5 4.6
2017-Mar-24 04:33N 37°52' E 023°33'0 0.0
2017-Mar-24 03:33N 37°52' E 023°33'0 0.0
2017-Mar-24 02:33N 37°52' E 023°33'0 0.0
2017-Mar-24 01:33N 37°52' E 023°33'0 0.0
2017-Mar-24 00:33N 37°52' E 023°33'0 0.0
2017-Mar-23 23:33N 37°52' E 023°33'0 0.0
2017-Mar-23 22:33N 37°52' E 023°33'0 0.0
2017-Mar-23 21:33N 37°52' E 023°33'0 0.1
2017-Mar-23 20:34N 37°52' E 023°33'0 0.1
2017-Mar-23 19:33N 37°52' E 023°33'0 0.0
2017-Mar-23 18:33N 37°52' E 023°33'0 0.0
2017-Mar-23 17:33N 37°52' E 023°33'0 0.0
2017-Mar-23 16:33N 37°52' E 023°33'0 0.0
2017-Mar-23 15:33N 37°52' E 023°33'0 0.0
2017-Mar-23 14:33N 37°52' E 023°33'0 0.5
2017-Mar-23 13:33N 37°52' E 023°33'1110.6
2017-Mar-23 12:33N 37°45' E 023°43'1212.2
2017-Mar-23 11:33N 37°38' E 023°55'1612.1
2017-Mar-23 10:14N 37°44' E 024°14'14113.1
2017-Mar-22 23:31N 39°46' E 025°44'1313.1
2017-Mar-22 22:32N 39°56' E 025°54'  
2017-Mar-18 06:33N 37°47' E 025°25'1414.1
2017-Mar-18 05:33N 37°34' E 025°18'1414.2
2017-Mar-18 04:33N 37°24' E 025°05'1414.4
2017-Mar-18 03:33N 37°15' E 024°51'  

Dump ship's entire track history